메인 페이지
METAR-TAF:

METAR-TAF

공항 :

실비오 페티로시 국제공항

아순시온, 파라과이

위도: 25-16S, 경도: 057-38W, 고도: 101m

현재 날씨관측

예보는 16분 전, 20:00시(UTC)에 발표되었습니다.
북북동6kt
온도 28°C
습도 48%
기압 1006 hPa
시정 10km 이상
1500m 미만 상공 구름 및 적란운 없음

METAR: SGAS 182000Z 03006KT CAVOK 28/16 Q1006

시각: 16:16 (20:16 UTC)

예보

예보는 3 시간 26분 전, 16:50시(UTC)에 발표되었습니다.
예보 대상 시간: 18일 18시부터 19일 18시까지 (UTC)
북북동6kt
시정 10km 이상
고도 3300ft 상공 구름 조금
전환 중
18일 21시부터 18일 23시까지 (UTC)
여러 방향의 바람 3kt
시정: 8000m
전환 중
19일 02시부터 19일 06시까지 (UTC)
북동6kt
시정 10km 이상
1500m 미만 상공 구름 및 적란운 없음

TAF: SGAS 181650Z 1818/1918 03006KT 9999 FEW033 TX30/1819Z TN19/1909Z BECMG 1821/1823 VRB03KT 8000 NSC BECMG 1902/1906 05006KT CAVOK

4,000개 이상의 공항 관측 자료 및 예보 (METAR 및 TAF 보고).

지도상에서 검색 가능한 기상관측소가 노란 점과 빨간 점으로 표시되어 있습니다.

기상관측소 명을 보려면 표시 위로 마우스를 이동하세요.

날씨 관측과 예보를 보려면 클릭하세요.

지도 변경 : 확대하려면 엑스 표시가 있는 녹색 버튼, 축소하려면 빼기 표시가 있는 녹색 버튼, 다음 페이지의 지도를 보려면 녹색 화살표를 클릭하세요.


METAR-TAF: